BEL9NK EDDB-EBBR
Flight info
| Callsign | BEL9NK |
|---|---|
| Flight time | N/A |
| Altitude | 34000 |
| Route | KISUC1Q/06R KISUC Z20 MAG Z92 ABGUS DCT TOLTA DCT ABAMI Z717 NEREL/N0373F240 T855 AGENI/N0343F180 T855 BATTY |
| Aircraft | A319/M-SDE3FGHIRWY/LB1 |
Departure
| Time | 2026-05-07 18:21 |
|---|---|
| Airport | Berlin Brandenburg Airport (EDDB) |
Arrival
| Time | N/A |
|---|---|
| Airport | Brussels Airport (EBBR) |
| Time | Latitude | Longitude | Altitude | Speed | Heading |
|---|---|---|---|---|---|
| 2026-05-07 17:41 | 52.36469 | 13.50546 | 155 ft | 0 kts | 69° |
| 2026-05-07 18:07 | 52.36464 | 13.50523 | 155 ft | 4 kts | 69° |
| 2026-05-07 18:07 | 52.36454 | 13.50482 | 155 ft | 4 kts | 71° |
| 2026-05-07 18:07 | 52.36447 | 13.50440 | 155 ft | 4 kts | 86° |
| 2026-05-07 18:08 | 52.36451 | 13.50402 | 155 ft | 4 kts | 133° |
| 2026-05-07 18:08 | 52.36458 | 13.50391 | 155 ft | 0 kts | 159° |
| 2026-05-07 18:11 | 52.36456 | 13.50392 | 155 ft | 1 kts | 159° |
| 2026-05-07 18:11 | 52.36415 | 13.50419 | 155 ft | 8 kts | 159° |
| 2026-05-07 18:11 | 52.36368 | 13.50448 | 155 ft | 8 kts | 159° |
| 2026-05-07 18:12 | 52.36304 | 13.50489 | 155 ft | 11 kts | 158° |
| 2026-05-07 18:12 | 52.36229 | 13.50537 | 155 ft | 12 kts | 159° |
| 2026-05-07 18:12 | 52.36149 | 13.50588 | 155 ft | 13 kts | 159° |
| 2026-05-07 18:12 | 52.36062 | 13.50641 | 155 ft | 14 kts | 158° |
| 2026-05-07 18:13 | 52.35971 | 13.50699 | 155 ft | 15 kts | 159° |
| 2026-05-07 18:13 | 52.35888 | 13.50688 | 155 ft | 13 kts | 233° |
| 2026-05-07 18:13 | 52.35813 | 13.50641 | 155 ft | 9 kts | 173° |
| 2026-05-07 18:13 | 52.35763 | 13.50589 | 154 ft | 9 kts | 239° |
| 2026-05-07 18:14 | 52.35742 | 13.50487 | 154 ft | 10 kts | 249° |
| 2026-05-07 18:14 | 52.35715 | 13.50378 | 154 ft | 11 kts | 248° |
| 2026-05-07 18:14 | 52.35683 | 13.50243 | 154 ft | 15 kts | 249° |
| 2026-05-07 18:14 | 52.35636 | 13.50055 | 154 ft | 20 kts | 249° |
| 2026-05-07 18:15 | 52.35585 | 13.49836 | 154 ft | 21 kts | 248° |
| 2026-05-07 18:15 | 52.35533 | 13.49614 | 154 ft | 21 kts | 251° |
| 2026-05-07 18:15 | 52.35480 | 13.49394 | 154 ft | 21 kts | 249° |
| 2026-05-07 18:15 | 52.35428 | 13.49171 | 154 ft | 21 kts | 248° |
| 2026-05-07 18:16 | 52.35374 | 13.48943 | 154 ft | 22 kts | 249° |
| 2026-05-07 18:16 | 52.35318 | 13.48708 | 154 ft | 22 kts | 249° |
| 2026-05-07 18:16 | 52.35261 | 13.48466 | 154 ft | 23 kts | 249° |
| 2026-05-07 18:16 | 52.35202 | 13.48219 | 154 ft | 24 kts | 249° |
| 2026-05-07 18:17 | 52.35142 | 13.47966 | 154 ft | 24 kts | 248° |
| 2026-05-07 18:17 | 52.35081 | 13.47713 | 154 ft | 25 kts | 248° |
| 2026-05-07 18:17 | 52.35034 | 13.47513 | 154 ft | 16 kts | 249° |
| 2026-05-07 18:17 | 52.34991 | 13.47339 | 154 ft | 17 kts | 248° |
| 2026-05-07 18:18 | 52.34948 | 13.47156 | 154 ft | 18 kts | 250° |
| 2026-05-07 18:18 | 52.34904 | 13.46966 | 154 ft | 18 kts | 249° |
| 2026-05-07 18:18 | 52.34860 | 13.46780 | 154 ft | 15 kts | 249° |
| 2026-05-07 18:18 | 52.34780 | 13.46724 | 154 ft | 14 kts | 159° |
| 2026-05-07 18:19 | 52.34700 | 13.46777 | 154 ft | 5 kts | 158° |
| 2026-05-07 18:19 | 52.34662 | 13.46801 | 154 ft | 6 kts | 158° |
| 2026-05-07 18:19 | 52.34609 | 13.46836 | 154 ft | 10 kts | 154° |
| 2026-05-07 18:19 | 52.34570 | 13.46936 | 154 ft | 11 kts | 92° |
| 2026-05-07 18:20 | 52.34597 | 13.47070 | 154 ft | 18 kts | 70° |
| 2026-05-07 18:20 | 52.34734 | 13.47650 | 154 ft | 93 kts | 69° |
| 2026-05-07 18:20 | 52.35053 | 13.48990 | 156 ft | 156 kts | 69° |
| 2026-05-07 18:20 | 52.35458 | 13.50714 | 707 ft | 162 kts | 70° |
| 2026-05-07 18:21 | 52.35385 | 13.52564 | 1334 ft | 175 kts | 116° |
| 2026-05-07 18:21 | 52.34619 | 13.54135 | 2049 ft | 182 kts | 127° |
| 2026-05-07 18:21 | 52.33642 | 13.55625 | 2511 ft | 204 kts | 150° |
| 2026-05-07 18:21 | 52.32207 | 13.55794 | 3142 ft | 221 kts | 194° |
| 2026-05-07 18:22 | 52.30767 | 13.54531 | 3542 ft | 250 kts | 216° |
| 2026-05-07 18:22 | 52.29838 | 13.53315 | 3935 ft | 265 kts | 220° |
| 2026-05-07 18:22 | 52.27971 | 13.50567 | 5156 ft | 274 kts | 223° |
| 2026-05-07 18:22 | 52.26839 | 13.48053 | 6121 ft | 279 kts | 246° |
| 2026-05-07 18:23 | 52.26338 | 13.45038 | 7068 ft | 281 kts | 266° |
| 2026-05-07 18:23 | 52.26329 | 13.41840 | 8059 ft | 283 kts | 271° |
| 2026-05-07 18:23 | 52.26339 | 13.38618 | 9036 ft | 286 kts | 271° |
| 2026-05-07 18:23 | 52.26332 | 13.35352 | 9989 ft | 289 kts | 270° |
| 2026-05-07 18:24 | 52.26243 | 13.32016 | 10570 ft | 306 kts | 260° |
| 2026-05-07 18:24 | 52.25702 | 13.28535 | 11006 ft | 324 kts | 254° |
| 2026-05-07 18:24 | 52.25094 | 13.24943 | 11750 ft | 331 kts | 254° |
| 2026-05-07 18:24 | 52.24470 | 13.21306 | 12588 ft | 335 kts | 254° |
| 2026-05-07 18:25 | 52.23837 | 13.17632 | 13439 ft | 338 kts | 254° |
| 2026-05-07 18:25 | 52.23210 | 13.13976 | 14222 ft | 341 kts | 254° |
| 2026-05-07 18:25 | 52.22572 | 13.10245 | 14936 ft | 345 kts | 255° |
| 2026-05-07 18:25 | 52.21922 | 13.06437 | 15640 ft | 349 kts | 255° |
| 2026-05-07 18:26 | 52.21269 | 13.02609 | 16338 ft | 353 kts | 255° |
| 2026-05-07 18:26 | 52.20610 | 12.98743 | 17039 ft | 356 kts | 255° |
| 2026-05-07 18:26 | 52.19941 | 12.94823 | 17737 ft | 360 kts | 255° |
| 2026-05-07 18:26 | 52.19263 | 12.90866 | 18427 ft | 364 kts | 255° |
| 2026-05-07 18:27 | 52.18579 | 12.86878 | 19057 ft | 367 kts | 256° |
| 2026-05-07 18:27 | 52.17886 | 12.82861 | 19686 ft | 370 kts | 256° |
| 2026-05-07 18:27 | 52.17183 | 12.78810 | 20311 ft | 373 kts | 255° |
| 2026-05-07 18:27 | 52.16711 | 12.76100 | 20720 ft | 376 kts | 255° |
| 2026-05-07 18:28 | 52.15764 | 12.70652 | 21529 ft | 380 kts | 255° |
| 2026-05-07 18:28 | 52.15041 | 12.66493 | 22147 ft | 383 kts | 256° |
| 2026-05-07 18:28 | 52.14312 | 12.62302 | 22739 ft | 387 kts | 255° |
| 2026-05-07 18:28 | 52.13573 | 12.58071 | 23363 ft | 390 kts | 255° |
| 2026-05-07 18:29 | 52.12825 | 12.53802 | 23911 ft | 394 kts | 255° |
| 2026-05-07 18:29 | 52.12070 | 12.49500 | 24407 ft | 397 kts | 255° |
| 2026-05-07 18:29 | 52.11309 | 12.45169 | 24893 ft | 400 kts | 255° |
| 2026-05-07 18:29 | 52.10540 | 12.40808 | 25374 ft | 403 kts | 255° |
| 2026-05-07 18:30 | 52.09765 | 12.36420 | 25845 ft | 406 kts | 255° |
| 2026-05-07 18:30 | 52.08991 | 12.32058 | 26334 ft | 407 kts | 255° |
| 2026-05-07 18:30 | 52.08201 | 12.27628 | 26829 ft | 409 kts | 254° |
| 2026-05-07 18:30 | 52.07407 | 12.23178 | 27299 ft | 412 kts | 254° |
| 2026-05-07 18:31 | 52.06985 | 12.20810 | 27542 ft | 413 kts | 254° |
| 2026-05-07 18:31 | 52.06179 | 12.16309 | 27996 ft | 416 kts | 254° |
| 2026-05-07 18:31 | 52.05367 | 12.11785 | 28450 ft | 418 kts | 254° |
| 2026-05-07 18:31 | 52.04549 | 12.07232 | 28901 ft | 421 kts | 254° |
| 2026-05-07 18:32 | 52.03723 | 12.02653 | 29344 ft | 424 kts | 254° |
| 2026-05-07 18:32 | 52.02888 | 11.98045 | 29779 ft | 427 kts | 254° |
| 2026-05-07 18:32 | 52.02044 | 11.93413 | 30197 ft | 429 kts | 254° |
| 2026-05-07 18:32 | 52.01194 | 11.88756 | 30551 ft | 432 kts | 253° |
| 2026-05-07 18:33 | 52.00349 | 11.84136 | 30892 ft | 434 kts | 254° |
| 2026-05-07 18:33 | 51.99487 | 11.79427 | 31251 ft | 436 kts | 253° |
| 2026-05-07 18:33 | 51.98643 | 11.74704 | 31632 ft | 437 kts | 254° |
| 2026-05-07 18:33 | 51.97831 | 11.69953 | 32022 ft | 437 kts | 255° |
| 2026-05-07 18:34 | 51.97038 | 11.65196 | 32466 ft | 437 kts | 255° |
| 2026-05-07 18:34 | 51.96251 | 11.60442 | 32903 ft | 436 kts | 255° |
| 2026-05-07 18:34 | 51.95458 | 11.55700 | 33335 ft | 436 kts | 255° |
| 2026-05-07 18:34 | 51.94653 | 11.50960 | 33766 ft | 436 kts | 255° |
| 2026-05-07 18:35 | 51.93853 | 11.46295 | 34056 ft | 436 kts | 255° |
| 2026-05-07 18:35 | 51.92248 | 11.37032 | 34112 ft | 419 kts | 254° |
| 2026-05-07 18:36 | 51.90670 | 11.27999 | 34111 ft | 415 kts | 254° |
| 2026-05-07 18:36 | 51.89096 | 11.19007 | 34106 ft | 415 kts | 254° |
| 2026-05-07 18:37 | 51.87519 | 11.10018 | 34108 ft | 415 kts | 254° |
| 2026-05-07 18:37 | 51.86218 | 11.00928 | 34107 ft | 415 kts | 260° |
| 2026-05-07 18:38 | 51.85217 | 10.91805 | 34108 ft | 415 kts | 260° |
| 2026-05-07 18:38 | 51.84189 | 10.82630 | 34104 ft | 414 kts | 260° |
| 2026-05-07 18:39 | 51.83158 | 10.73464 | 34100 ft | 414 kts | 260° |
| 2026-05-07 18:39 | 51.82132 | 10.64373 | 34101 ft | 413 kts | 260° |
| 2026-05-07 18:40 | 51.81093 | 10.55239 | 34096 ft | 413 kts | 260° |
| 2026-05-07 18:40 | 51.80042 | 10.46084 | 34093 ft | 413 kts | 259° |
| 2026-05-07 18:41 | 51.78993 | 10.37028 | 34094 ft | 413 kts | 259° |
| 2026-05-07 18:41 | 51.77933 | 10.27897 | 34095 ft | 413 kts | 259° |
| 2026-05-07 18:42 | 51.76871 | 10.18811 | 34097 ft | 413 kts | 260° |
| 2026-05-07 18:42 | 51.75795 | 10.09700 | 34106 ft | 413 kts | 260° |
| 2026-05-07 18:43 | 51.74710 | 10.00606 | 34097 ft | 413 kts | 260° |
| 2026-05-07 18:43 | 51.73619 | 9.91517 | 34096 ft | 412 kts | 259° |
| 2026-05-07 18:44 | 51.72531 | 9.82442 | 34096 ft | 412 kts | 260° |
| 2026-05-07 18:44 | 51.71439 | 9.73427 | 34097 ft | 412 kts | 259° |
| 2026-05-07 18:45 | 51.70333 | 9.64363 | 34098 ft | 412 kts | 259° |
| 2026-05-07 18:45 | 51.69210 | 9.55310 | 34095 ft | 412 kts | 259° |
| 2026-05-07 18:46 | 51.68116 | 9.46249 | 34100 ft | 412 kts | 260° |
| 2026-05-07 18:46 | 51.67155 | 9.37224 | 34093 ft | 412 kts | 261° |
| 2026-05-07 18:47 | 51.66207 | 9.28126 | 34095 ft | 411 kts | 261° |
| 2026-05-07 18:47 | 51.65219 | 9.19054 | 34101 ft | 411 kts | 260° |
| 2026-05-07 18:48 | 51.64213 | 9.09995 | 34102 ft | 411 kts | 260° |
| 2026-05-07 18:48 | 51.63201 | 9.00933 | 34099 ft | 411 kts | 260° |
| 2026-05-07 18:49 | 51.62188 | 8.91886 | 34107 ft | 411 kts | 260° |
| 2026-05-07 18:49 | 51.61172 | 8.82909 | 34102 ft | 411 kts | 260° |
| 2026-05-07 18:50 | 51.60145 | 8.73869 | 34002 ft | 410 kts | 260° |
| 2026-05-07 18:50 | 51.59630 | 8.69378 | 33448 ft | 407 kts | 260° |
| 2026-05-07 18:50 | 51.59116 | 8.64923 | 32972 ft | 403 kts | 260° |
| 2026-05-07 18:50 | 51.58606 | 8.60519 | 32490 ft | 399 kts | 260° |
| 2026-05-07 18:51 | 51.58095 | 8.56151 | 32018 ft | 396 kts | 259° |
| 2026-05-07 18:51 | 51.57590 | 8.51820 | 31550 ft | 392 kts | 260° |
| 2026-05-07 18:51 | 51.57094 | 8.47531 | 31097 ft | 389 kts | 260° |
| 2026-05-07 18:51 | 51.56767 | 8.44701 | 30803 ft | 387 kts | 260° |
| 2026-05-07 18:52 | 51.56113 | 8.39107 | 30233 ft | 383 kts | 259° |
| 2026-05-07 18:52 | 51.55619 | 8.34917 | 29752 ft | 380 kts | 259° |
| 2026-05-07 18:52 | 51.55124 | 8.30762 | 29271 ft | 377 kts | 259° |
| 2026-05-07 18:52 | 51.54636 | 8.26645 | 28825 ft | 374 kts | 259° |
| 2026-05-07 18:53 | 51.54155 | 8.22554 | 28389 ft | 371 kts | 259° |
| 2026-05-07 18:53 | 51.53838 | 8.19871 | 28105 ft | 369 kts | 259° |
| 2026-05-07 18:53 | 51.53357 | 8.15840 | 27700 ft | 366 kts | 259° |
| 2026-05-07 18:53 | 51.52876 | 8.11843 | 27267 ft | 363 kts | 259° |
| 2026-05-07 18:54 | 51.52400 | 8.07885 | 26837 ft | 360 kts | 259° |
| 2026-05-07 18:54 | 51.51927 | 8.03960 | 26409 ft | 357 kts | 259° |
| 2026-05-07 18:54 | 51.51306 | 7.98800 | 25839 ft | 354 kts | 259° |
| 2026-05-07 18:54 | 51.50837 | 7.94939 | 25410 ft | 351 kts | 259° |
| 2026-05-07 18:55 | 51.50510 | 7.92274 | 25161 ft | 349 kts | 259° |
| 2026-05-07 18:55 | 51.50052 | 7.88530 | 25073 ft | 349 kts | 259° |
| 2026-05-07 18:55 | 51.49585 | 7.84702 | 25088 ft | 350 kts | 259° |
| 2026-05-07 18:55 | 51.49115 | 7.80874 | 25087 ft | 350 kts | 259° |
| 2026-05-07 18:56 | 51.48642 | 7.77038 | 25085 ft | 350 kts | 259° |
| 2026-05-07 18:56 | 51.48050 | 7.73272 | 24886 ft | 348 kts | 248° |
| 2026-05-07 18:56 | 51.46981 | 7.69805 | 24442 ft | 345 kts | 243° |
| 2026-05-07 18:56 | 51.45883 | 7.66456 | 24133 ft | 343 kts | 243° |
| 2026-05-07 18:57 | 51.44763 | 7.63072 | 24073 ft | 344 kts | 242° |
| 2026-05-07 18:57 | 51.43638 | 7.59677 | 24086 ft | 345 kts | 243° |
| 2026-05-07 18:57 | 51.42512 | 7.56275 | 24083 ft | 345 kts | 243° |
| 2026-05-07 18:57 | 51.41391 | 7.52894 | 23909 ft | 344 kts | 243° |
| 2026-05-07 18:58 | 51.40263 | 7.49497 | 23689 ft | 344 kts | 242° |
| 2026-05-07 18:58 | 51.39143 | 7.46131 | 23412 ft | 342 kts | 242° |
| 2026-05-07 18:58 | 51.38025 | 7.42773 | 23131 ft | 341 kts | 242° |
| 2026-05-07 18:58 | 51.36909 | 7.39430 | 22855 ft | 340 kts | 242° |
| 2026-05-07 18:59 | 51.35798 | 7.36100 | 22581 ft | 338 kts | 242° |
| 2026-05-07 18:59 | 51.34696 | 7.32796 | 22311 ft | 337 kts | 242° |
| 2026-05-07 18:59 | 51.33610 | 7.29535 | 22102 ft | 335 kts | 242° |
| 2026-05-07 18:59 | 51.32512 | 7.26248 | 22084 ft | 335 kts | 242° |
| 2026-05-07 19:00 | 51.31414 | 7.22964 | 22086 ft | 335 kts | 242° |
| 2026-05-07 19:00 | 51.30314 | 7.19680 | 22083 ft | 335 kts | 242° |
| 2026-05-07 19:00 | 51.29210 | 7.16400 | 22090 ft | 335 kts | 242° |
| 2026-05-07 19:00 | 51.28106 | 7.13128 | 22084 ft | 335 kts | 242° |
| 2026-05-07 19:01 | 51.27000 | 7.09855 | 22085 ft | 335 kts | 242° |
| 2026-05-07 19:01 | 51.25893 | 7.06577 | 22089 ft | 335 kts | 242° |
| 2026-05-07 19:01 | 51.24788 | 7.03306 | 22076 ft | 335 kts | 242° |
| 2026-05-07 19:01 | 51.23679 | 7.00034 | 22077 ft | 335 kts | 242° |
| 2026-05-07 19:02 | 51.22568 | 6.96762 | 22077 ft | 335 kts | 242° |
| 2026-05-07 19:02 | 51.21459 | 6.93493 | 22080 ft | 335 kts | 242° |
| 2026-05-07 19:02 | 51.20350 | 6.90224 | 22077 ft | 335 kts | 242° |
| 2026-05-07 19:02 | 51.19239 | 6.86959 | 22088 ft | 335 kts | 242° |
| 2026-05-07 19:03 | 51.18145 | 6.83737 | 22084 ft | 335 kts | 243° |
| 2026-05-07 19:03 | 51.17328 | 6.80294 | 21767 ft | 331 kts | 255° |
| 2026-05-07 19:03 | 51.16716 | 6.76767 | 21312 ft | 330 kts | 255° |
| 2026-05-07 19:03 | 51.16121 | 6.73249 | 20877 ft | 328 kts | 255° |
| 2026-05-07 19:04 | 51.15532 | 6.69753 | 20454 ft | 326 kts | 255° |
| 2026-05-07 19:04 | 51.14944 | 6.66277 | 20047 ft | 324 kts | 255° |
| 2026-05-07 19:04 | 51.14357 | 6.62819 | 19640 ft | 322 kts | 255° |
| 2026-05-07 19:04 | 51.13774 | 6.59384 | 19257 ft | 321 kts | 255° |
| 2026-05-07 19:05 | 51.13191 | 6.55974 | 18886 ft | 319 kts | 255° |
| 2026-05-07 19:05 | 51.12606 | 6.52577 | 18513 ft | 317 kts | 255° |
| 2026-05-07 19:05 | 51.12021 | 6.49198 | 18109 ft | 316 kts | 255° |
| 2026-05-07 19:05 | 51.11435 | 6.45841 | 17702 ft | 314 kts | 254° |
| 2026-05-07 19:06 | 51.10857 | 6.42547 | 17311 ft | 312 kts | 255° |
| 2026-05-07 19:06 | 51.09704 | 6.35935 | 16551 ft | 309 kts | 255° |
| 2026-05-07 19:06 | 51.09132 | 6.32650 | 16187 ft | 307 kts | 254° |
| 2026-05-07 19:07 | 51.08564 | 6.29382 | 16065 ft | 306 kts | 255° |
| 2026-05-07 19:07 | 51.07995 | 6.26114 | 16079 ft | 307 kts | 254° |
| 2026-05-07 19:07 | 51.07424 | 6.22840 | 16083 ft | 307 kts | 254° |
| 2026-05-07 19:07 | 51.06850 | 6.19565 | 16085 ft | 307 kts | 254° |
| 2026-05-07 19:08 | 51.06275 | 6.16294 | 16082 ft | 307 kts | 254° |
| 2026-05-07 19:08 | 51.05700 | 6.13016 | 16042 ft | 308 kts | 254° |
| 2026-05-07 19:08 | 51.05125 | 6.09748 | 15781 ft | 306 kts | 254° |
| 2026-05-07 19:08 | 51.04551 | 6.06496 | 15529 ft | 305 kts | 254° |
| 2026-05-07 19:09 | 51.03977 | 6.03258 | 15280 ft | 304 kts | 254° |
| 2026-05-07 19:09 | 51.03403 | 6.00037 | 15033 ft | 303 kts | 254° |
| 2026-05-07 19:09 | 51.02831 | 5.96823 | 14784 ft | 302 kts | 254° |
| 2026-05-07 19:09 | 51.02268 | 5.93664 | 14546 ft | 301 kts | 254° |
| 2026-05-07 19:10 | 51.01698 | 5.90472 | 14303 ft | 300 kts | 254° |
| 2026-05-07 19:10 | 51.01132 | 5.87297 | 14056 ft | 300 kts | 254° |
| 2026-05-07 19:10 | 51.00529 | 5.83932 | 13819 ft | 332 kts | 254° |
| 2026-05-07 19:10 | 50.99888 | 5.80356 | 13551 ft | 340 kts | 254° |
| 2026-05-07 19:11 | 50.99238 | 5.76734 | 13276 ft | 341 kts | 254° |
| 2026-05-07 19:11 | 50.98588 | 5.73123 | 13011 ft | 340 kts | 254° |
| 2026-05-07 19:11 | 50.97937 | 5.69516 | 12750 ft | 339 kts | 254° |
| 2026-05-07 19:11 | 50.97287 | 5.65923 | 12490 ft | 338 kts | 253° |
| 2026-05-07 19:12 | 50.96638 | 5.62334 | 12230 ft | 338 kts | 253° |
| 2026-05-07 19:12 | 50.96077 | 5.58778 | 11963 ft | 336 kts | 262° |
| 2026-05-07 19:12 | 50.96080 | 5.55129 | 11717 ft | 326 kts | 273° |
| 2026-05-07 19:12 | 50.96209 | 5.51591 | 11465 ft | 317 kts | 272° |
| 2026-05-07 19:13 | 50.96333 | 5.48150 | 11213 ft | 308 kts | 272° |
| 2026-05-07 19:13 | 50.96452 | 5.44794 | 10970 ft | 301 kts | 272° |
| 2026-05-07 19:13 | 50.96569 | 5.41517 | 10720 ft | 293 kts | 272° |
| 2026-05-07 19:13 | 50.96682 | 5.38329 | 10494 ft | 288 kts | 272° |
| 2026-05-07 19:14 | 50.96793 | 5.35172 | 10162 ft | 286 kts | 272° |
| 2026-05-07 19:14 | 50.96903 | 5.32073 | 9773 ft | 285 kts | 272° |
| 2026-05-07 19:14 | 50.97011 | 5.28951 | 9396 ft | 283 kts | 272° |
| 2026-05-07 19:14 | 50.97117 | 5.25843 | 9010 ft | 281 kts | 272° |
| 2026-05-07 19:15 | 50.97223 | 5.22750 | 8618 ft | 280 kts | 272° |
| 2026-05-07 19:15 | 50.97329 | 5.19681 | 8260 ft | 277 kts | 272° |
| 2026-05-07 19:15 | 50.97431 | 5.16634 | 7881 ft | 276 kts | 272° |
| 2026-05-07 19:15 | 50.97532 | 5.13603 | 7509 ft | 274 kts | 272° |
| 2026-05-07 19:16 | 50.97632 | 5.10591 | 7137 ft | 273 kts | 272° |
| 2026-05-07 19:16 | 50.97730 | 5.07634 | 6773 ft | 272 kts | 272° |
| 2026-05-07 19:16 | 50.97827 | 5.04642 | 6393 ft | 271 kts | 272° |
| 2026-05-07 19:16 | 50.97922 | 5.01660 | 5993 ft | 270 kts | 272° |
| 2026-05-07 19:17 | 50.98016 | 4.98762 | 5840 ft | 254 kts | 272° |
| 2026-05-07 19:17 | 50.98103 | 4.96039 | 5655 ft | 242 kts | 272° |
| 2026-05-07 19:17 | 50.98187 | 4.93390 | 5395 ft | 239 kts | 272° |
| 2026-05-07 19:17 | 50.98269 | 4.90742 | 4948 ft | 242 kts | 273° |
| 2026-05-07 19:18 | 50.98350 | 4.88068 | 4469 ft | 243 kts | 272° |
| 2026-05-07 19:18 | 50.98430 | 4.85384 | 4006 ft | 244 kts | 272° |
| 2026-05-07 19:18 | 50.98512 | 4.82721 | 3648 ft | 239 kts | 273° |
| 2026-05-07 19:18 | 50.98593 | 4.80125 | 3412 ft | 232 kts | 273° |
| 2026-05-07 19:19 | 50.98667 | 4.77608 | 3235 ft | 226 kts | 271° |
| 2026-05-07 19:19 | 50.98422 | 4.75180 | 3079 ft | 223 kts | 249° |
| 2026-05-07 19:19 | 50.97788 | 4.72945 | 2923 ft | 220 kts | 245° |
| 2026-05-07 19:19 | 50.97160 | 4.70785 | 2776 ft | 212 kts | 245° |
| 2026-05-07 19:20 | 50.96568 | 4.68739 | 2703 ft | 200 kts | 245° |
| 2026-05-07 19:20 | 50.95992 | 4.66742 | 2406 ft | 198 kts | 245° |
| 2026-05-07 19:20 | 50.95426 | 4.64782 | 2122 ft | 191 kts | 245° |
| 2026-05-07 19:20 | 50.94889 | 4.62921 | 1863 ft | 179 kts | 245° |
| 2026-05-07 19:21 | 50.94399 | 4.61216 | 1643 ft | 159 kts | 245° |
| 2026-05-07 19:21 | 50.93964 | 4.59708 | 1439 ft | 144 kts | 245° |
| 2026-05-07 19:21 | 50.93560 | 4.58303 | 1252 ft | 137 kts | 245° |
| 2026-05-07 19:21 | 50.93167 | 4.56938 | 1075 ft | 135 kts | 245° |
| 2026-05-07 19:22 | 50.92777 | 4.55589 | 895 ft | 134 kts | 245° |
| 2026-05-07 19:22 | 50.92390 | 4.54250 | 723 ft | 133 kts | 246° |
| 2026-05-07 19:22 | 50.92004 | 4.52916 | 554 ft | 133 kts | 245° |
| 2026-05-07 19:22 | 50.91625 | 4.51607 | 393 ft | 133 kts | 245° |
| 2026-05-07 19:23 | 50.91244 | 4.50279 | 210 ft | 132 kts | 245° |